Harlem, MT (59526)

10:08 AM MST on December 22, 2014 (GMT -0700)
farm | Change Station
CLOSE
Current Station
Personal Weather Station
Location: Hogeland, MT
Elevation: 3104 ft
Nearby Weather Stations

Elev 3104 ft 48.81 °N, 108.54 °W | Updated 4 seconds ago

Overcast
Overcast
30.8 °F
Feels Like 22 °F
N
11.2
Wind Variable Wind from WNW
Gusts 17.0 mph

Today
High -- | Low -- °F
--% Chance of Precip.
Yesterday
High -- | Low -- °F
Precip. -- in
8:05 AM 4:22 PM
New Moon, 1% visible
Pressure 29.89 in
Visibility 10.0 miles
Clouds Mostly Cloudy 12000 ft
Windchill 22 °F
Dew Point 28 °F
Humidity 90%
Rainfall 0.00 in
Snow Depth Not available.
UV 0 out of 12
Pollen .10 out of 12
Air Quality Not available.
Flu Activity Not available.
METAR KHVR 221653Z AUTO 23009KT 10SM BKN120 M01/M04 A2981 RMK AO2 SLP120 T10061039 $

More Conditions Fewer Conditions

Pressure 29.89 in
Visibility 10.0 miles
Clouds Mostly Cloudy 12000 ft
Windchill 22 °F
Dew Point 28 °F
Humidity 90%
Rainfall 0.00 in
Snow Depth Not available.
UV 0 out of 12
Pollen .10 out of 12
Air Quality Not available.
Flu Activity Not available.
METAR KHVR 221653Z AUTO 23009KT 10SM BKN120 M01/M04 A2981 RMK AO2 SLP120 T10061039 $

More Conditions Fewer Conditions

10-Day Weather Forecast

Almanac

Astronomy

Dec. 22, 2014 Rise Set
Actual Time
Civil Twilight
Nautical Twilight
Astronomical Twilight
Moon
Length of Visible Light
Length of Day
Tomorrow will be .
, % of the Moon is Illuminated

Today's Extremes

State Highs State Lows

Community

WunderPhotos

Upload Photos

1,779,645 photos uploaded!

WunderBlogs® & News

Nearby

Air Quality

  Air Quality AQ Index Pollutant
Not available.

Snow Depth

Station Depth Elevation

Earthquake Activity

City Distance Mag. Time & Date
Minimum magnitude displayed is 2.5.

Coastal Water Temperatures

Place Temperature

Nearby Weather Stations